sensor_id;sensor_type;location;lat;lon;timestamp;P1;durP1;ratioP1;P2;durP2;ratioP2
79585;SDS011;69054;50.866;4.636;2023-06-10T00:01:00;14.15;;;10.15;;
79585;SDS011;69054;50.866;4.636;2023-06-10T00:03:26;12.07;;;10.65;;
79585;SDS011;69054;50.866;4.636;2023-06-10T00:05:51;11.73;;;10.55;;
79585;SDS011;69054;50.866;4.636;2023-06-10T00:08:17;11.38;;;10.15;;
79585;SDS011;69054;50.866;4.636;2023-06-10T00:10:44;12.27;;;10.27;;
79585;SDS011;69054;50.866;4.636;2023-06-10T00:13:10;14.20;;;10.43;;
79585;SDS011;69054;50.866;4.636;2023-06-10T00:15:36;10.95;;;9.70;;
79585;SDS011;69054;50.866;4.636;2023-06-10T00:18:02;11.85;;;9.65;;
79585;SDS011;69054;50.866;4.636;2023-06-10T00:20:28;12.13;;;10.18;;
79585;SDS011;69054;50.866;4.636;2023-06-10T00:22:55;12.20;;;11.00;;
79585;SDS011;69054;50.866;4.636;2023-06-10T00:25:22;11.07;;;9.98;;
79585;SDS011;69054;50.866;4.636;2023-06-10T00:27:47;10.88;;;9.77;;
79585;SDS011;69054;50.866;4.636;2023-06-10T00:30:13;11.68;;;9.93;;
79585;SDS011;69054;50.866;4.636;2023-06-10T00:32:38;11.75;;;10.55;;
79585;SDS011;69054;50.866;4.636;2023-06-10T00:35:04;10.75;;;9.65;;
79585;SDS011;69054;50.866;4.636;2023-06-10T00:37:30;12.82;;;10.38;;
79585;SDS011;69054;50.866;4.636;2023-06-10T00:39:57;15.38;;;11.20;;
79585;SDS011;69054;50.866;4.636;2023-06-10T00:42:22;12.90;;;10.38;;
79585;SDS011;69054;50.866;4.636;2023-06-10T00:44:51;11.70;;;10.50;;
79585;SDS011;69054;50.866;4.636;2023-06-10T00:47:19;12.70;;;10.60;;
79585;SDS011;69054;50.866;4.636;2023-06-10T00:49:45;12.30;;;10.13;;
79585;SDS011;69054;50.866;4.636;2023-06-10T00:52:11;11.27;;;10.02;;
79585;SDS011;69054;50.866;4.636;2023-06-10T00:54:37;11.00;;;9.90;;
79585;SDS011;69054;50.866;4.636;2023-06-10T00:57:04;11.95;;;9.95;;
79585;SDS011;69054;50.866;4.636;2023-06-10T00:59:29;11.73;;;10.27;;
79585;SDS011;69054;50.866;4.636;2023-06-10T01:01:56;11.95;;;10.75;;
79585;SDS011;69054;50.866;4.636;2023-06-10T01:04:22;13.10;;;11.00;;
79585;SDS011;69054;50.866;4.636;2023-06-10T01:09:32;12.48;;;10.10;;
79585;SDS011;69054;50.866;4.636;2023-06-10T01:14:29;11.38;;;10.07;;
79585;SDS011;69054;50.866;4.636;2023-06-10T01:16:56;13.85;;;10.50;;
79585;SDS011;69054;50.866;4.636;2023-06-10T01:19:22;12.38;;;11.07;;
79585;SDS011;69054;50.866;4.636;2023-06-10T01:21:49;11.57;;;10.35;;
79585;SDS011;69054;50.866;4.636;2023-06-10T01:24:16;12.05;;;10.48;;
79585;SDS011;69054;50.866;4.636;2023-06-10T01:26:43;11.98;;;10.68;;
79585;SDS011;69054;50.866;4.636;2023-06-10T01:29:11;11.52;;;10.43;;
79585;SDS011;69054;50.866;4.636;2023-06-10T01:31:49;11.80;;;10.60;;
79585;SDS011;69054;50.866;4.636;2023-06-10T01:34:22;11.73;;;10.57;;
79585;SDS011;69054;50.866;4.636;2023-06-10T01:36:49;12.90;;;10.60;;
79585;SDS011;69054;50.866;4.636;2023-06-10T01:39:16;11.63;;;10.43;;
79585;SDS011;69054;50.866;4.636;2023-06-10T01:41:43;12.23;;;10.23;;
79585;SDS011;69054;50.866;4.636;2023-06-10T01:44:09;12.10;;;10.40;;
79585;SDS011;69054;50.866;4.636;2023-06-10T01:46:35;11.73;;;10.50;;
79585;SDS011;69054;50.866;4.636;2023-06-10T01:49:00;11.30;;;9.95;;
79585;SDS011;69054;50.866;4.636;2023-06-10T01:51:26;14.10;;;10.98;;
79585;SDS011;69054;50.866;4.636;2023-06-10T01:53:51;11.43;;;10.23;;
79585;SDS011;69054;50.866;4.636;2023-06-10T01:56:17;13.25;;;10.95;;
79585;SDS011;69054;50.866;4.636;2023-06-10T01:58:44;12.63;;;11.40;;
79585;SDS011;69054;50.866;4.636;2023-06-10T02:01:10;13.02;;;10.88;;
79585;SDS011;69054;50.866;4.636;2023-06-10T02:03:35;12.65;;;11.15;;
79585;SDS011;69054;50.866;4.636;2023-06-10T02:06:01;12.82;;;10.68;;
79585;SDS011;69054;50.866;4.636;2023-06-10T02:08:26;13.02;;;11.73;;
79585;SDS011;69054;50.866;4.636;2023-06-10T02:10:52;12.18;;;10.40;;
79585;SDS011;69054;50.866;4.636;2023-06-10T02:13:18;15.02;;;11.02;;
79585;SDS011;69054;50.866;4.636;2023-06-10T02:15:44;14.75;;;11.20;;
79585;SDS011;69054;50.866;4.636;2023-06-10T02:18:09;13.55;;;11.73;;
79585;SDS011;69054;50.866;4.636;2023-06-10T02:20:36;13.98;;;12.02;;
79585;SDS011;69054;50.866;4.636;2023-06-10T02:23:05;13.93;;;12.48;;
79585;SDS011;69054;50.866;4.636;2023-06-10T02:25:30;14.32;;;12.75;;
79585;SDS011;69054;50.866;4.636;2023-06-10T02:27:55;14.63;;;12.00;;
79585;SDS011;69054;50.866;4.636;2023-06-10T02:30:21;15.65;;;12.38;;
79585;SDS011;69054;50.866;4.636;2023-06-10T02:32:46;14.48;;;11.85;;
79585;SDS011;69054;50.866;4.636;2023-06-10T02:35:12;13.55;;;11.95;;
79585;SDS011;69054;50.866;4.636;2023-06-10T02:37:38;14.23;;;12.75;;
79585;SDS011;69054;50.866;4.636;2023-06-10T02:40:05;13.80;;;12.27;;
79585;SDS011;69054;50.866;4.636;2023-06-10T02:42:31;14.02;;;12.52;;
79585;SDS011;69054;50.866;4.636;2023-06-10T02:44:56;13.23;;;11.48;;
79585;SDS011;69054;50.866;4.636;2023-06-10T02:47:21;15.52;;;13.65;;
79585;SDS011;69054;50.866;4.636;2023-06-10T02:49:47;12.55;;;11.23;;
79585;SDS011;69054;50.866;4.636;2023-06-10T02:52:12;14.32;;;12.25;;
79585;SDS011;69054;50.866;4.636;2023-06-10T02:54:37;14.95;;;12.63;;
79585;SDS011;69054;50.866;4.636;2023-06-10T02:57:03;14.75;;;12.35;;
79585;SDS011;69054;50.866;4.636;2023-06-10T02:59:28;14.10;;;12.57;;
79585;SDS011;69054;50.866;4.636;2023-06-10T03:01:54;14.90;;;12.27;;
79585;SDS011;69054;50.866;4.636;2023-06-10T03:04:19;16.65;;;13.18;;
79585;SDS011;69054;50.866;4.636;2023-06-10T03:06:45;14.60;;;12.10;;
79585;SDS011;69054;50.866;4.636;2023-06-10T03:09:12;14.48;;;12.50;;
79585;SDS011;69054;50.866;4.636;2023-06-10T03:11:37;16.10;;;13.25;;
79585;SDS011;69054;50.866;4.636;2023-06-10T03:14:02;15.10;;;13.50;;
79585;SDS011;69054;50.866;4.636;2023-06-10T03:16:28;17.00;;;13.50;;
79585;SDS011;69054;50.866;4.636;2023-06-10T03:18:55;15.13;;;13.02;;
79585;SDS011;69054;50.866;4.636;2023-06-10T03:21:20;14.77;;;13.18;;
79585;SDS011;69054;50.866;4.636;2023-06-10T03:23:45;15.68;;;13.98;;
79585;SDS011;69054;50.866;4.636;2023-06-10T03:26:11;16.05;;;13.25;;
79585;SDS011;69054;50.866;4.636;2023-06-10T03:28:39;16.02;;;13.88;;
79585;SDS011;69054;50.866;4.636;2023-06-10T03:31:05;17.33;;;15.48;;
79585;SDS011;69054;50.866;4.636;2023-06-10T03:33:30;17.00;;;13.95;;
79585;SDS011;69054;50.866;4.636;2023-06-10T03:35:56;15.32;;;13.43;;
79585;SDS011;69054;50.866;4.636;2023-06-10T03:38:21;17.67;;;15.77;;
79585;SDS011;69054;50.866;4.636;2023-06-10T03:40:47;15.68;;;13.98;;
79585;SDS011;69054;50.866;4.636;2023-06-10T03:43:12;20.17;;;14.32;;
79585;SDS011;69054;50.866;4.636;2023-06-10T03:45:38;16.23;;;14.52;;
79585;SDS011;69054;50.866;4.636;2023-06-10T03:48:03;14.73;;;13.00;;
79585;SDS011;69054;50.866;4.636;2023-06-10T03:50:29;17.15;;;13.90;;
79585;SDS011;69054;50.866;4.636;2023-06-10T03:52:54;15.93;;;13.68;;
79585;SDS011;69054;50.866;4.636;2023-06-10T03:55:20;16.48;;;14.65;;
79585;SDS011;69054;50.866;4.636;2023-06-10T03:57:47;17.48;;;14.43;;
79585;SDS011;69054;50.866;4.636;2023-06-10T04:00:13;17.35;;;13.75;;
79585;SDS011;69054;50.866;4.636;2023-06-10T04:02:40;16.63;;;14.60;;
79585;SDS011;69054;50.866;4.636;2023-06-10T04:05:11;19.08;;;14.25;;
79585;SDS011;69054;50.866;4.636;2023-06-10T04:07:37;16.50;;;13.48;;
79585;SDS011;69054;50.866;4.636;2023-06-10T04:10:05;16.13;;;13.80;;
79585;SDS011;69054;50.866;4.636;2023-06-10T04:12:31;15.65;;;12.93;;
79585;SDS011;69054;50.866;4.636;2023-06-10T04:14:57;16.45;;;14.43;;
79585;SDS011;69054;50.866;4.636;2023-06-10T04:17:23;16.20;;;13.77;;
79585;SDS011;69054;50.866;4.636;2023-06-10T04:19:49;16.17;;;13.95;;
79585;SDS011;69054;50.866;4.636;2023-06-10T04:22:15;17.35;;;14.38;;
79585;SDS011;69054;50.866;4.636;2023-06-10T04:24:41;15.38;;;13.27;;
79585;SDS011;69054;50.866;4.636;2023-06-10T04:27:08;15.68;;;12.73;;
79585;SDS011;69054;50.866;4.636;2023-06-10T04:29:34;17.05;;;13.63;;
79585;SDS011;69054;50.866;4.636;2023-06-10T04:31:59;17.38;;;14.57;;
79585;SDS011;69054;50.866;4.636;2023-06-10T04:34:26;15.63;;;13.93;;
79585;SDS011;69054;50.866;4.636;2023-06-10T04:36:52;14.52;;;13.02;;
79585;SDS011;69054;50.866;4.636;2023-06-10T04:39:17;15.48;;;13.85;;
79585;SDS011;69054;50.866;4.636;2023-06-10T04:41:43;15.98;;;14.27;;
79585;SDS011;69054;50.866;4.636;2023-06-10T04:44:08;19.23;;;15.20;;
79585;SDS011;69054;50.866;4.636;2023-06-10T04:46:35;17.15;;;13.52;;
79585;SDS011;69054;50.866;4.636;2023-06-10T04:49:01;17.95;;;14.85;;
79585;SDS011;69054;50.866;4.636;2023-06-10T04:51:26;16.38;;;13.18;;
79585;SDS011;69054;50.866;4.636;2023-06-10T04:53:51;15.30;;;13.05;;
79585;SDS011;69054;50.866;4.636;2023-06-10T04:56:17;15.07;;;13.32;;
79585;SDS011;69054;50.866;4.636;2023-06-10T04:58:42;15.02;;;13.52;;
79585;SDS011;69054;50.866;4.636;2023-06-10T05:01:08;15.25;;;13.65;;
79585;SDS011;69054;50.866;4.636;2023-06-10T05:03:33;15.63;;;13.60;;
79585;SDS011;69054;50.866;4.636;2023-06-10T05:05:58;15.68;;;13.07;;
79585;SDS011;69054;50.866;4.636;2023-06-10T05:08:24;14.48;;;12.98;;
79585;SDS011;69054;50.866;4.636;2023-06-10T05:10:49;15.63;;;13.55;;
79585;SDS011;69054;50.866;4.636;2023-06-10T05:13:16;17.10;;;13.15;;
79585;SDS011;69054;50.866;4.636;2023-06-10T05:15:41;15.13;;;13.50;;
79585;SDS011;69054;50.866;4.636;2023-06-10T05:18:09;17.33;;;14.23;;
79585;SDS011;69054;50.866;4.636;2023-06-10T05:20:35;14.75;;;13.25;;
79585;SDS011;69054;50.866;4.636;2023-06-10T05:23:00;13.93;;;12.50;;
79585;SDS011;69054;50.866;4.636;2023-06-10T05:25:26;15.20;;;13.60;;
79585;SDS011;69054;50.866;4.636;2023-06-10T05:27:55;15.30;;;12.75;;
79585;SDS011;69054;50.866;4.636;2023-06-10T05:30:20;16.30;;;13.00;;
79585;SDS011;69054;50.866;4.636;2023-06-10T05:32:46;15.23;;;13.15;;
79585;SDS011;69054;50.866;4.636;2023-06-10T05:35:11;15.07;;;12.88;;
79585;SDS011;69054;50.866;4.636;2023-06-10T05:37:36;14.88;;;12.93;;
79585;SDS011;69054;50.866;4.636;2023-06-10T05:40:02;13.90;;;12.60;;
79585;SDS011;69054;50.866;4.636;2023-06-10T05:42:29;14.32;;;12.38;;
79585;SDS011;69054;50.866;4.636;2023-06-10T05:44:54;15.23;;;12.35;;
79585;SDS011;69054;50.866;4.636;2023-06-10T05:47:20;16.27;;;13.18;;
79585;SDS011;69054;50.866;4.636;2023-06-10T05:49:45;13.43;;;11.73;;
79585;SDS011;69054;50.866;4.636;2023-06-10T05:52:13;13.43;;;11.88;;
79585;SDS011;69054;50.866;4.636;2023-06-10T05:54:38;14.68;;;13.18;;
79585;SDS011;69054;50.866;4.636;2023-06-10T05:57:04;14.80;;;13.35;;
79585;SDS011;69054;50.866;4.636;2023-06-10T05:59:30;13.95;;;12.48;;
79585;SDS011;69054;50.866;4.636;2023-06-10T06:01:56;13.48;;;11.75;;
79585;SDS011;69054;50.866;4.636;2023-06-10T06:04:21;14.13;;;12.75;;
79585;SDS011;69054;50.866;4.636;2023-06-10T06:06:47;13.82;;;12.50;;
79585;SDS011;69054;50.866;4.636;2023-06-10T06:09:12;14.23;;;12.82;;
79585;SDS011;69054;50.866;4.636;2023-06-10T06:11:37;13.02;;;11.60;;
79585;SDS011;69054;50.866;4.636;2023-06-10T06:14:03;12.95;;;11.55;;
79585;SDS011;69054;50.866;4.636;2023-06-10T06:16:28;13.30;;;11.95;;
79585;SDS011;69054;50.866;4.636;2023-06-10T06:18:54;13.77;;;12.38;;
79585;SDS011;69054;50.866;4.636;2023-06-10T06:21:19;12.93;;;11.63;;
79585;SDS011;69054;50.866;4.636;2023-06-10T06:23:45;12.27;;;11.07;;
79585;SDS011;69054;50.866;4.636;2023-06-10T06:26:10;13.20;;;11.60;;
79585;SDS011;69054;50.866;4.636;2023-06-10T06:28:36;13.80;;;12.38;;
79585;SDS011;69054;50.866;4.636;2023-06-10T06:31:01;13.38;;;11.23;;
79585;SDS011;69054;50.866;4.636;2023-06-10T06:33:26;12.68;;;11.38;;
79585;SDS011;69054;50.866;4.636;2023-06-10T06:35:52;12.48;;;11.23;;
79585;SDS011;69054;50.866;4.636;2023-06-10T06:38:17;12.77;;;11.45;;
79585;SDS011;69054;50.866;4.636;2023-06-10T06:40:42;11.93;;;10.73;;
79585;SDS011;69054;50.866;4.636;2023-06-10T06:43:08;12.35;;;11.15;;
79585;SDS011;69054;50.866;4.636;2023-06-10T06:45:33;13.05;;;11.43;;
79585;SDS011;69054;50.866;4.636;2023-06-10T06:47:59;12.32;;;11.15;;
79585;SDS011;69054;50.866;4.636;2023-06-10T06:50:24;12.30;;;11.02;;
79585;SDS011;69054;50.866;4.636;2023-06-10T06:52:50;14.20;;;11.52;;
79585;SDS011;69054;50.866;4.636;2023-06-10T06:55:15;12.88;;;11.57;;
79585;SDS011;69054;50.866;4.636;2023-06-10T06:57:40;12.40;;;11.20;;
79585;SDS011;69054;50.866;4.636;2023-06-10T07:00:06;12.57;;;11.27;;
79585;SDS011;69054;50.866;4.636;2023-06-10T07:02:34;12.15;;;10.95;;
79585;SDS011;69054;50.866;4.636;2023-06-10T07:05:00;12.25;;;11.05;;
79585;SDS011;69054;50.866;4.636;2023-06-10T07:07:25;14.43;;;11.05;;
79585;SDS011;69054;50.866;4.636;2023-06-10T07:09:50;12.40;;;11.10;;
79585;SDS011;69054;50.866;4.636;2023-06-10T07:12:17;12.65;;;11.35;;
79585;SDS011;69054;50.866;4.636;2023-06-10T07:14:42;11.18;;;10.07;;
79585;SDS011;69054;50.866;4.636;2023-06-10T07:17:08;12.07;;;10.88;;
79585;SDS011;69054;50.866;4.636;2023-06-10T07:19:33;11.95;;;10.32;;
79585;SDS011;69054;50.866;4.636;2023-06-10T07:21:59;11.55;;;10.50;;
79585;SDS011;69054;50.866;4.636;2023-06-10T07:24:24;12.15;;;10.85;;
79585;SDS011;69054;50.866;4.636;2023-06-10T07:26:50;12.15;;;11.05;;
79585;SDS011;69054;50.866;4.636;2023-06-10T07:29:15;11.30;;;10.23;;
79585;SDS011;69054;50.866;4.636;2023-06-10T07:31:41;11.63;;;10.52;;
79585;SDS011;69054;50.866;4.636;2023-06-10T07:34:07;11.52;;;10.50;;
79585;SDS011;69054;50.866;4.636;2023-06-10T07:36:32;10.80;;;9.70;;
79585;SDS011;69054;50.866;4.636;2023-06-10T07:38:58;10.77;;;9.77;;
79585;SDS011;69054;50.866;4.636;2023-06-10T07:41:23;11.88;;;10.63;;
79585;SDS011;69054;50.866;4.636;2023-06-10T07:46:22;11.15;;;10.05;;
79585;SDS011;69054;50.866;4.636;2023-06-10T07:48:49;10.63;;;9.63;;
79585;SDS011;69054;50.866;4.636;2023-06-10T07:51:15;10.27;;;9.23;;
79585;SDS011;69054;50.866;4.636;2023-06-10T07:53:41;10.80;;;9.80;;
79585;SDS011;69054;50.866;4.636;2023-06-10T07:56:07;10.40;;;9.50;;
79585;SDS011;69054;50.866;4.636;2023-06-10T07:58:33;11.18;;;9.45;;
79585;SDS011;69054;50.866;4.636;2023-06-10T08:00:58;10.95;;;9.82;;
79585;SDS011;69054;50.866;4.636;2023-06-10T08:03:23;10.88;;;9.63;;
79585;SDS011;69054;50.866;4.636;2023-06-10T08:05:49;10.38;;;9.38;;
79585;SDS011;69054;50.866;4.636;2023-06-10T08:08:14;11.00;;;9.95;;
79585;SDS011;69054;50.866;4.636;2023-06-10T08:10:40;11.30;;;10.20;;
79585;SDS011;69054;50.866;4.636;2023-06-10T08:13:05;11.48;;;9.73;;
79585;SDS011;69054;50.866;4.636;2023-06-10T08:15:31;10.40;;;9.40;;
79585;SDS011;69054;50.866;4.636;2023-06-10T08:17:56;9.95;;;8.95;;
79585;SDS011;69054;50.866;4.636;2023-06-10T08:20:22;11.15;;;9.20;;
79585;SDS011;69054;50.866;4.636;2023-06-10T08:22:47;10.63;;;8.95;;
79585;SDS011;69054;50.866;4.636;2023-06-10T08:25:12;9.98;;;8.40;;
79585;SDS011;69054;50.866;4.636;2023-06-10T08:27:38;9.40;;;8.05;;
79585;SDS011;69054;50.866;4.636;2023-06-10T08:30:03;9.30;;;8.38;;
79585;SDS011;69054;50.866;4.636;2023-06-10T08:32:29;11.23;;;9.23;;
79585;SDS011;69054;50.866;4.636;2023-06-10T08:34:55;8.50;;;7.72;;
79585;SDS011;69054;50.866;4.636;2023-06-10T08:37:20;9.45;;;8.55;;
79585;SDS011;69054;50.866;4.636;2023-06-10T08:39:45;9.10;;;8.20;;
79585;SDS011;69054;50.866;4.636;2023-06-10T08:42:14;9.88;;;8.48;;
79585;SDS011;69054;50.866;4.636;2023-06-10T08:45:02;9.65;;;7.50;;
79585;SDS011;69054;50.866;4.636;2023-06-10T08:47:29;9.70;;;8.90;;
79585;SDS011;69054;50.866;4.636;2023-06-10T08:50:01;10.27;;;8.40;;
79585;SDS011;69054;50.866;4.636;2023-06-10T08:52:29;8.60;;;7.75;;
79585;SDS011;69054;50.866;4.636;2023-06-10T08:55:13;8.85;;;8.05;;
79585;SDS011;69054;50.866;4.636;2023-06-10T08:57:44;9.32;;;7.78;;
79585;SDS011;69054;50.866;4.636;2023-06-10T09:00:10;8.82;;;8.02;;
79585;SDS011;69054;50.866;4.636;2023-06-10T09:02:37;8.52;;;7.68;;
79585;SDS011;69054;50.866;4.636;2023-06-10T09:05:03;8.98;;;8.07;;
79585;SDS011;69054;50.866;4.636;2023-06-10T09:07:30;8.10;;;7.40;;
79585;SDS011;69054;50.866;4.636;2023-06-10T09:10:01;9.30;;;7.65;;
79585;SDS011;69054;50.866;4.636;2023-06-10T09:12:28;7.95;;;7.00;;
79585;SDS011;69054;50.866;4.636;2023-06-10T09:14:54;13.30;;;7.95;;
79585;SDS011;69054;50.866;4.636;2023-06-10T09:17:20;8.25;;;7.45;;
79585;SDS011;69054;50.866;4.636;2023-06-10T09:19:45;9.10;;;7.50;;
79585;SDS011;69054;50.866;4.636;2023-06-10T09:22:11;8.57;;;7.65;;
79585;SDS011;69054;50.866;4.636;2023-06-10T09:24:37;8.85;;;7.95;;
79585;SDS011;69054;50.866;4.636;2023-06-10T09:27:04;10.23;;;7.32;;
79585;SDS011;69054;50.866;4.636;2023-06-10T09:29:31;8.10;;;7.28;;
79585;SDS011;69054;50.866;4.636;2023-06-10T09:32:09;9.07;;;8.05;;
79585;SDS011;69054;50.866;4.636;2023-06-10T09:34:35;8.48;;;7.57;;
79585;SDS011;69054;50.866;4.636;2023-06-10T09:37:01;13.82;;;8.52;;
79585;SDS011;69054;50.866;4.636;2023-06-10T09:39:27;8.50;;;7.68;;
79585;SDS011;69054;50.866;4.636;2023-06-10T09:41:52;8.18;;;7.38;;
79585;SDS011;69054;50.866;4.636;2023-06-10T09:44:18;9.52;;;8.63;;
79585;SDS011;69054;50.866;4.636;2023-06-10T09:46:53;8.98;;;8.18;;
79585;SDS011;69054;50.866;4.636;2023-06-10T09:49:24;9.68;;;7.95;;
79585;SDS011;69054;50.866;4.636;2023-06-10T09:51:54;9.05;;;8.10;;
79585;SDS011;69054;50.866;4.636;2023-06-10T09:54:20;8.88;;;8.07;;
79585;SDS011;69054;50.866;4.636;2023-06-10T09:56:49;9.63;;;8.73;;
79585;SDS011;69054;50.866;4.636;2023-06-10T09:59:27;9.40;;;8.50;;
79585;SDS011;69054;50.866;4.636;2023-06-10T10:01:55;9.00;;;8.07;;
79585;SDS011;69054;50.866;4.636;2023-06-10T10:04:24;8.95;;;8.07;;
79585;SDS011;69054;50.866;4.636;2023-06-10T10:06:50;8.48;;;7.78;;
79585;SDS011;69054;50.866;4.636;2023-06-10T10:09:15;9.00;;;8.20;;
79585;SDS011;69054;50.866;4.636;2023-06-10T10:11:41;9.77;;;8.80;;
79585;SDS011;69054;50.866;4.636;2023-06-10T10:14:09;9.07;;;8.15;;
79585;SDS011;69054;50.866;4.636;2023-06-10T10:16:36;9.68;;;8.77;;
79585;SDS011;69054;50.866;4.636;2023-06-10T10:19:07;9.80;;;8.40;;
79585;SDS011;69054;50.866;4.636;2023-06-10T10:21:40;8.95;;;8.05;;
79585;SDS011;69054;50.866;4.636;2023-06-10T10:24:14;8.48;;;7.68;;
79585;SDS011;69054;50.866;4.636;2023-06-10T10:26:42;9.13;;;8.25;;
79585;SDS011;69054;50.866;4.636;2023-06-10T10:29:11;10.23;;;8.43;;
79585;SDS011;69054;50.866;4.636;2023-06-10T10:31:44;9.95;;;8.98;;
79585;SDS011;69054;50.866;4.636;2023-06-10T10:34:13;9.40;;;8.43;;
79585;SDS011;69054;50.866;4.636;2023-06-10T10:36:42;9.43;;;8.52;;
79585;SDS011;69054;50.866;4.636;2023-06-10T10:39:08;10.52;;;9.27;;
79585;SDS011;69054;50.866;4.636;2023-06-10T10:41:34;8.88;;;7.97;;
79585;SDS011;69054;50.866;4.636;2023-06-10T10:44:03;10.07;;;8.40;;
79585;SDS011;69054;50.866;4.636;2023-06-10T10:46:39;8.98;;;8.15;;
79585;SDS011;69054;50.866;4.636;2023-06-10T10:49:08;8.90;;;8.02;;
79585;SDS011;69054;50.866;4.636;2023-06-10T10:51:35;9.05;;;8.27;;
79585;SDS011;69054;50.866;4.636;2023-06-10T10:54:14;9.10;;;8.30;;
79585;SDS011;69054;50.866;4.636;2023-06-10T10:56:39;8.77;;;7.97;;
79585;SDS011;69054;50.866;4.636;2023-06-10T10:59:08;9.25;;;8.35;;
79585;SDS011;69054;50.866;4.636;2023-06-10T11:01:40;8.70;;;7.90;;
79585;SDS011;69054;50.866;4.636;2023-06-10T11:04:07;8.45;;;7.65;;
79585;SDS011;69054;50.866;4.636;2023-06-10T11:06:36;9.60;;;8.60;;
79585;SDS011;69054;50.866;4.636;2023-06-10T11:09:02;8.35;;;7.50;;
79585;SDS011;69054;50.866;4.636;2023-06-10T11:11:56;9.43;;;8.55;;
79585;SDS011;69054;50.866;4.636;2023-06-10T11:14:26;9.73;;;8.80;;
79585;SDS011;69054;50.866;4.636;2023-06-10T11:16:57;9.85;;;8.90;;
79585;SDS011;69054;50.866;4.636;2023-06-10T11:19:36;9.70;;;8.80;;
79585;SDS011;69054;50.866;4.636;2023-06-10T11:22:05;9.30;;;8.40;;
79585;SDS011;69054;50.866;4.636;2023-06-10T11:24:32;8.80;;;7.97;;
79585;SDS011;69054;50.866;4.636;2023-06-10T11:30:25;9.32;;;8.30;;
79585;SDS011;69054;50.866;4.636;2023-06-10T11:32:50;9.25;;;8.45;;
79585;SDS011;69054;50.866;4.636;2023-06-10T11:35:17;9.52;;;8.73;;
79585;SDS011;69054;50.866;4.636;2023-06-10T11:37:44;10.05;;;8.93;;
79585;SDS011;69054;50.866;4.636;2023-06-10T11:40:10;9.43;;;8.52;;
79585;SDS011;69054;50.866;4.636;2023-06-10T11:42:40;8.48;;;7.55;;
79585;SDS011;69054;50.866;4.636;2023-06-10T11:45:06;9.00;;;8.18;;
79585;SDS011;69054;50.866;4.636;2023-06-10T11:47:33;8.77;;;7.88;;
79585;SDS011;69054;50.866;4.636;2023-06-10T11:49:58;8.80;;;8.00;;
79585;SDS011;69054;50.866;4.636;2023-06-10T11:52:27;8.55;;;7.68;;
79585;SDS011;69054;50.866;4.636;2023-06-10T11:54:54;8.80;;;7.93;;
79585;SDS011;69054;50.866;4.636;2023-06-10T11:57:20;8.38;;;7.57;;
79585;SDS011;69054;50.866;4.636;2023-06-10T11:59:45;8.73;;;7.93;;
79585;SDS011;69054;50.866;4.636;2023-06-10T12:02:14;10.10;;;7.88;;
79585;SDS011;69054;50.866;4.636;2023-06-10T12:04:41;9.90;;;8.60;;
79585;SDS011;69054;50.866;4.636;2023-06-10T12:07:06;8.95;;;8.05;;
79585;SDS011;69054;50.866;4.636;2023-06-10T12:09:31;8.57;;;7.75;;
79585;SDS011;69054;50.866;4.636;2023-06-10T12:12:01;8.18;;;7.47;;
79585;SDS011;69054;50.866;4.636;2023-06-10T12:14:49;7.88;;;6.72;;
79585;SDS011;69054;50.866;4.636;2023-06-10T12:17:16;8.38;;;7.53;;
79585;SDS011;69054;50.866;4.636;2023-06-10T12:19:41;8.73;;;7.82;;
79585;SDS011;69054;50.866;4.636;2023-06-10T12:22:07;8.68;;;7.88;;
79585;SDS011;69054;50.866;4.636;2023-06-10T12:24:32;9.02;;;8.15;;
79585;SDS011;69054;50.866;4.636;2023-06-10T12:26:58;9.50;;;7.85;;
79585;SDS011;69054;50.866;4.636;2023-06-10T12:29:24;8.35;;;7.20;;
79585;SDS011;69054;50.866;4.636;2023-06-10T12:31:53;10.27;;;8.20;;
79585;SDS011;69054;50.866;4.636;2023-06-10T12:34:30;8.63;;;7.65;;
79585;SDS011;69054;50.866;4.636;2023-06-10T12:37:00;8.05;;;7.35;;
79585;SDS011;69054;50.866;4.636;2023-06-10T12:39:29;9.38;;;7.88;;
79585;SDS011;69054;50.866;4.636;2023-06-10T12:41:58;8.85;;;8.05;;
79585;SDS011;69054;50.866;4.636;2023-06-10T12:44:30;9.82;;;8.93;;
79585;SDS011;69054;50.866;4.636;2023-06-10T12:46:57;8.18;;;7.47;;
79585;SDS011;69054;50.866;4.636;2023-06-10T12:49:22;8.50;;;7.80;;
79585;SDS011;69054;50.866;4.636;2023-06-10T12:51:48;8.32;;;7.63;;
79585;SDS011;69054;50.866;4.636;2023-06-10T12:54:14;9.48;;;8.50;;
79585;SDS011;69054;50.866;4.636;2023-06-10T12:56:39;8.60;;;7.80;;
79585;SDS011;69054;50.866;4.636;2023-06-10T12:59:04;8.77;;;7.90;;
79585;SDS011;69054;50.866;4.636;2023-06-10T13:01:30;8.93;;;7.82;;
79585;SDS011;69054;50.866;4.636;2023-06-10T13:03:56;9.60;;;7.93;;
79585;SDS011;69054;50.866;4.636;2023-06-10T13:06:22;7.90;;;7.10;;
79585;SDS011;69054;50.866;4.636;2023-06-10T13:08:48;8.85;;;8.02;;
79585;SDS011;69054;50.866;4.636;2023-06-10T13:11:13;8.32;;;7.63;;
79585;SDS011;69054;50.866;4.636;2023-06-10T13:13:39;8.98;;;7.85;;
79585;SDS011;69054;50.866;4.636;2023-06-10T13:16:04;8.43;;;7.70;;
79585;SDS011;69054;50.866;4.636;2023-06-10T13:18:30;8.80;;;8.00;;
79585;SDS011;69054;50.866;4.636;2023-06-10T13:21:02;9.00;;;8.10;;
79585;SDS011;69054;50.866;4.636;2023-06-10T13:23:30;8.85;;;8.05;;
79585;SDS011;69054;50.866;4.636;2023-06-10T13:25:56;8.05;;;7.35;;
79585;SDS011;69054;50.866;4.636;2023-06-10T13:28:22;9.23;;;8.32;;
79585;SDS011;69054;50.866;4.636;2023-06-10T13:30:47;9.57;;;8.50;;
79585;SDS011;69054;50.866;4.636;2023-06-10T13:33:13;9.48;;;8.57;;
79585;SDS011;69054;50.866;4.636;2023-06-10T13:35:38;9.45;;;8.45;;
79585;SDS011;69054;50.866;4.636;2023-06-10T13:38:03;9.20;;;8.30;;
79585;SDS011;69054;50.866;4.636;2023-06-10T13:40:29;8.82;;;8.00;;
79585;SDS011;69054;50.866;4.636;2023-06-10T13:42:54;9.13;;;8.25;;
79585;SDS011;69054;50.866;4.636;2023-06-10T13:45:20;9.38;;;8.48;;
79585;SDS011;69054;50.866;4.636;2023-06-10T13:47:46;10.07;;;8.52;;
79585;SDS011;69054;50.866;4.636;2023-06-10T13:50:11;10.57;;;8.38;;
79585;SDS011;69054;50.866;4.636;2023-06-10T13:52:38;12.95;;;8.57;;
79585;SDS011;69054;50.866;4.636;2023-06-10T13:55:03;9.75;;;8.60;;
79585;SDS011;69054;50.866;4.636;2023-06-10T13:57:29;8.98;;;8.07;;
79585;SDS011;69054;50.866;4.636;2023-06-10T13:59:54;9.35;;;8.45;;
79585;SDS011;69054;50.866;4.636;2023-06-10T14:02:21;9.13;;;8.32;;
79585;SDS011;69054;50.866;4.636;2023-06-10T14:04:46;9.00;;;8.10;;
79585;SDS011;69054;50.866;4.636;2023-06-10T14:07:12;10.38;;;8.25;;
79585;SDS011;69054;50.866;4.636;2023-06-10T14:09:37;8.90;;;7.80;;
79585;SDS011;69054;50.866;4.636;2023-06-10T14:12:03;9.73;;;8.25;;
79585;SDS011;69054;50.866;4.636;2023-06-10T14:14:30;10.30;;;9.30;;
79585;SDS011;69054;50.866;4.636;2023-06-10T14:16:58;9.30;;;8.50;;
79585;SDS011;69054;50.866;4.636;2023-06-10T14:19:23;9.05;;;8.00;;
79585;SDS011;69054;50.866;4.636;2023-06-10T14:21:48;9.40;;;8.52;;
79585;SDS011;69054;50.866;4.636;2023-06-10T14:24:14;9.05;;;8.15;;
79585;SDS011;69054;50.866;4.636;2023-06-10T14:26:39;9.32;;;8.43;;
79585;SDS011;69054;50.866;4.636;2023-06-10T14:29:05;9.23;;;8.23;;
79585;SDS011;69054;50.866;4.636;2023-06-10T14:31:32;9.18;;;8.27;;
79585;SDS011;69054;50.866;4.636;2023-06-10T14:33:57;9.20;;;8.10;;
79585;SDS011;69054;50.866;4.636;2023-06-10T14:36:22;9.32;;;8.43;;
79585;SDS011;69054;50.866;4.636;2023-06-10T14:38:48;9.35;;;8.43;;
79585;SDS011;69054;50.866;4.636;2023-06-10T14:41:13;10.95;;;8.80;;